Terminal Aerodrome Forecast
Issued by NWS

Home | Current Version | Previous Version | Text Only | Print | Product List | Glossary On
Versions: 1 2 3 4 5 6 7 8 9 10 11 12 13 14 15 16
976
FTUS43 KILX 131735
TAFCMI
TAF
KCMI 131735Z 1318/1418 34010KT P6SM SCT250
     FM140000 09007KT P6SM SCT120 BKN250
     FM140900 11010KT 3SM -SN OVC035
     FM141200 12014KT 1SM -SN BR SCT008 OVC015=

USA.gov is the U.S. government's official web portal to all federal, state and local government web resources and services.